Terminal Aerodrome Forecast
Issued by NWS Louisville, KY

Home | Current Version | Previous Version | Text Only | Print | Product List | Glossary On
Versions: 1 2 3 4 5 6 7 8 9 10 11 12 13 14 15 16 17
112
FTUS43 KLMK 082320
TAFSDF
TAF
KSDF 082320Z 0900/1006 28011G22KT 6SM -SHSN SCT015 BKN025
      TEMPO 0900/0904 4SM -SN BKN015
     FM090500 28010KT 6SM BR VCSH OVC022
     FM091500 28011KT 6SM BR VCSH OVC025
     FM092100 28012G20KT 5SM -SHSN OVC025=

USA.gov is the U.S. government's official web portal to all federal, state and local government web resources and services.